Time;durP1;ratioP1;P1;durP2;ratioP2;P2;SDS_P1;SDS_P2;PMS_P1;PMS_P2;Temp;Humidity;BMP_temperature;BMP_pressure;BME280_temperature;BME280_humidity;BME280_pressure;Samples;Min_cycle;Max_cycle;Signal;HPM_P1;HPM_P2
2021/01/28 05:07:27;;;;;;;2.67;0.10;;;12.30;90.00;;;;;;6206700;22;20279;-92
2021/01/28 05:10:19;;;;;;;0.00;0.00;;;12.30;90.00;;;;;;6233330;22;20008;-93
2021/01/28 05:24:17;;;;;;;0.00;0.00;;;12.30;90.10;;;;;;6023843;23;20023;-94
2021/01/28 05:31:47;;;;;;;;;;;;;;;;;;;;;
2021/01/28 05:45:53;;;;;;;0.00;0.00;;;12.30;90.10;;;;;;6188982;22;20198;-94
2021/01/28 05:48:29;;;;;;;0.00;0.00;;;12.30;90.10;;;;;;6105772;23;20294;-93
2021/01/28 05:51:04;;;;;;;0.00;0.00;;;12.30;90.10;;;;;;6184204;23;20394;-95
2021/01/28 05:53:31;;;;;;;0.00;0.00;;;12.30;90.10;;;;;;6228603;23;20000;-94
2021/01/28 05:55:57;;;;;;;0.00;0.00;;;12.30;90.10;;;;;;6229186;23;19997;-95
2021/01/28 05:58:32;;;;;;;0.00;0.00;;;12.30;90.10;;;;;;6223569;23;20000;-96
2021/01/28 06:01:30;;;;;;;0.00;0.00;;;12.30;90.10;;;;;;6200116;23;20015;-92
2021/01/28 06:04:44;;;;;;;;;;;;;;;;;;;;;
2021/01/28 06:25:35;;;;;;;0.00;0.00;;;12.40;90.10;;;;;;6269973;22;20031;-92
2021/01/28 06:28:51;;;;;;;0.00;0.00;;;12.40;90.10;;;;;;6193494;23;20009;-94
2021/01/28 06:37:50;;;;;;;0.00;0.00;;;12.40;90.10;;;;;;6191886;23;20393;-93
2021/01/28 06:43:54;;;;;;;0.00;0.00;;;12.40;90.10;;;;;;6143620;23;20032;-92
2021/01/28 06:47:12;;;;;;;0.00;0.00;;;12.40;90.10;;;;;;6133568;23;20020;-91
2021/01/28 06:50:05;;;;;;;0.00;0.00;;;12.50;90.10;;;;;;6133465;23;20013;-92
2021/01/28 07:05:02;;;;;;;0.55;0.03;;;12.40;90.10;;;;;;6168742;23;20009;-95
2021/01/28 07:07:30;;;;;;;0.00;0.00;;;12.40;90.10;;;;;;6137438;23;20011;-93
2021/01/28 07:10:06;;;;;;;0.00;0.00;;;12.50;90.20;;;;;;6212827;23;20004;-86
2021/01/28 16:12:06;;;;;;;186.10;157.98;;;17.90;70.90;;;;;;5059467;28;20744;-61
2021/01/28 16:15:20;;;;;;;173.80;145.88;;;21.80;59.20;;;;;;5064028;28;20779;-62
2021/01/28 16:19:26;;;;;;;163.18;139.75;;;22.00;57.20;;;;;;5060487;28;20404;-67
2021/01/28 16:22:26;;;;;;;159.55;136.93;;;22.00;57.10;;;;;;5072369;28;20370;-66
2021/01/28 16:24:54;;;;;;;173.02;144.50;;;22.10;56.80;;;;;;5063663;28;20021;-67
2021/01/28 16:27:20;;;;;;;178.57;148.95;;;22.10;56.70;;;;;;5055675;28;20041;-67
2021/01/28 16:29:47;;;;;;;180.88;150.35;;;22.20;56.50;;;;;;5056975;28;20053;-63
2021/01/28 16:32:13;;;;;;;186.45;156.00;;;22.20;56.40;;;;;;5043638;28;20030;-67
2021/01/28 16:34:39;;;;;;;184.73;155.45;;;22.20;56.80;;;;;;5054935;28;20033;-67
2021/01/28 16:42:24;;;;;;;4.13;3.20;;;22.00;56.70;;;;;;5115670;27;20355;-90
2021/01/28 16:44:52;;;;;;;4.45;2.25;;;21.00;58.70;;;;;;5107751;28;20043;-88
2021/01/28 16:47:18;;;;;;;5.32;2.55;;;19.80;61.40;;;;;;5080661;28;20123;-88
2021/01/28 16:49:44;;;;;;;6.32;2.08;;;18.70;64.30;;;;;;5088538;28;20024;-87
2021/01/28 16:52:10;;;;;;;1.75;1.27;;;17.80;66.70;;;;;;5063231;28;20413;-87
2021/01/28 16:54:36;;;;;;;1.90;1.15;;;17.00;68.70;;;;;;5094713;28;20027;-88
2021/01/28 16:57:03;;;;;;;1.38;0.55;;;16.50;70.10;;;;;;5078024;28;20025;-88
2021/01/28 16:59:29;;;;;;;5.45;0.98;;;16.00;71.10;;;;;;5088381;28;20020;-89
2021/01/28 17:01:55;;;;;;;0.75;0.30;;;15.70;72.00;;;;;;5079664;28;20487;-88
2021/01/28 17:04:22;;;;;;;8.38;0.52;;;15.40;72.50;;;;;;5085986;28;20039;-88
2021/01/28 17:06:48;;;;;;;0.30;0.25;;;15.20;72.90;;;;;;5066955;28;20081;-88
2021/01/28 17:09:14;;;;;;;0.17;0.10;;;15.00;73.30;;;;;;5051266;28;20039;-89
2021/01/28 17:11:40;;;;;;;0.50;0.32;;;14.90;73.60;;;;;;5063222;28;20047;-88
2021/01/28 17:14:07;;;;;;;0.30;0.20;;;14.80;73.90;;;;;;5097970;28;20044;-87
2021/01/28 17:16:33;;;;;;;0.52;0.08;;;14.70;73.90;;;;;;5062879;28;20457;-88
2021/01/28 17:18:59;;;;;;;0.43;0.32;;;14.60;74.20;;;;;;5057424;28;20036;-89
2021/01/28 17:21:25;;;;;;;0.30;0.00;;;14.60;74.50;;;;;;5096698;28;20388;-90
2021/01/28 17:23:51;;;;;;;0.10;0.00;;;14.50;74.60;;;;;;5082680;28;20032;-89
2021/01/28 17:26:17;;;;;;;0.08;0.08;;;14.50;74.70;;;;;;5062588;28;20426;-89
2021/01/28 17:28:43;;;;;;;0.00;0.00;;;14.40;74.90;;;;;;5075094;28;20040;-90
2021/01/28 17:31:09;;;;;;;0.10;0.03;;;14.40;75.10;;;;;;5077717;28;20490;-89
2021/01/28 17:33:35;;;;;;;0.95;0.00;;;14.40;75.30;;;;;;5069204;28;20044;-94
2021/01/28 17:36:01;;;;;;;2.75;0.10;;;14.40;75.30;;;;;;5086261;28;20047;-94
2021/01/28 17:38:28;;;;;;;0.35;0.20;;;14.40;75.50;;;;;;5093390;28;20051;-91
2021/01/28 17:40:54;;;;;;;0.10;0.00;;;14.40;75.60;;;;;;5062118;28;20499;-88
2021/01/28 17:43:20;;;;;;;1.38;0.55;;;14.30;75.60;;;;;;5082273;28;20032;-90
2021/01/28 17:45:46;;;;;;;0.25;0.10;;;14.30;75.80;;;;;;5066246;28;20567;-93
2021/01/28 17:48:12;;;;;;;0.52;0.13;;;14.30;75.90;;;;;;5084822;28;20354;-90
2021/01/28 17:50:41;;;;;;;0.00;0.00;;;14.30;76.00;;;;;;5061862;28;20033;-89
2021/01/28 17:53:07;;;;;;;1.02;0.35;;;14.30;76.20;;;;;;5075611;28;20515;-89
2021/01/28 17:55:34;;;;;;;2.60;0.15;;;14.30;76.30;;;;;;5071812;28;20043;-90
2021/01/28 17:58:00;;;;;;;0.05;0.00;;;14.30;76.50;;;;;;5035956;28;20040;-89
2021/01/28 18:00:31;;;;;;;6.35;0.45;;;14.20;76.60;;;;;;5086004;28;20050;-89
2021/01/28 18:02:57;;;;;;;0.10;0.00;;;14.20;76.70;;;;;;5068665;28;20040;-88
2021/01/28 18:05:24;;;;;;;0.00;0.00;;;14.20;76.80;;;;;;5071642;28;20029;-88
2021/01/28 18:07:51;;;;;;;0.05;0.00;;;14.20;77.00;;;;;;5058105;28;20033;-87
2021/01/28 18:10:17;;;;;;;2.22;0.40;;;14.20;77.10;;;;;;5068233;28;20044;-88
2021/01/28 18:12:43;;;;;;;1.75;0.38;;;14.20;77.20;;;;;;5051924;28;20037;-85
2021/01/28 18:15:11;;;;;;;4.38;0.60;;;14.20;77.30;;;;;;5071080;28;20025;-84
2021/01/28 18:17:39;;;;;;;0.30;0.10;;;14.20;77.50;;;;;;5070573;28;20049;-83
2021/01/28 18:20:06;;;;;;;0.08;0.00;;;14.20;77.60;;;;;;5071560;28;20392;-86
2021/01/28 18:22:32;;;;;;;1.33;0.28;;;14.20;77.70;;;;;;5064669;28;20044;-85
2021/01/28 18:24:58;;;;;;;0.40;0.08;;;14.20;77.90;;;;;;5070495;28;20040;-85
2021/01/28 18:27:24;;;;;;;1.92;0.30;;;14.20;78.00;;;;;;5043661;28;20032;-85
2021/01/28 18:29:50;;;;;;;14.18;0.20;;;14.20;78.10;;;;;;5064416;28;20047;-86
2021/01/28 18:32:16;;;;;;;1.88;0.20;;;14.20;78.30;;;;;;5052344;28;20036;-86
2021/01/28 18:34:44;;;;;;;0.80;0.40;;;14.10;78.40;;;;;;5036143;28;20479;-86
2021/01/28 18:37:10;;;;;;;0.98;0.22;;;14.10;78.50;;;;;;5068883;28;20021;-87
2021/01/28 18:39:36;;;;;;;1.08;0.30;;;14.10;79.40;;;;;;5085151;28;20028;-88
2021/01/28 18:42:02;;;;;;;3.72;0.52;;;14.00;78.70;;;;;;5070086;28;20143;-88
2021/01/28 18:44:28;;;;;;;0.50;0.10;;;14.10;78.90;;;;;;5075089;28;20048;-88
2021/01/28 18:46:56;;;;;;;0.30;0.00;;;14.10;79.00;;;;;;5057919;28;20503;-87
2021/01/28 18:49:23;;;;;;;1.13;0.03;;;14.10;79.10;;;;;;5045313;28;20048;-86
2021/01/28 18:51:49;;;;;;;0.00;0.00;;;14.10;79.20;;;;;;5048310;28;20024;-85
2021/01/28 18:54:16;;;;;;;0.13;0.00;;;14.10;79.30;;;;;;5073201;28;20036;-87
2021/01/28 18:56:42;;;;;;;0.03;0.00;;;14.10;79.30;;;;;;5080461;28;20035;-87
2021/01/28 18:59:08;;;;;;;0.20;0.00;;;14.00;79.40;;;;;;5074083;28;20051;-87
2021/01/28 19:01:34;;;;;;;0.63;0.30;;;14.10;79.50;;;;;;5076178;28;20048;-88
2021/01/28 19:04:00;;;;;;;0.00;0.00;;;14.00;79.60;;;;;;5081525;28;20036;-88
2021/01/28 19:06:27;;;;;;;0.30;0.10;;;14.00;79.60;;;;;;5079946;28;20044;-88
2021/01/28 19:08:53;;;;;;;0.08;0.00;;;14.00;79.70;;;;;;5061954;28;20043;-85
2021/01/28 19:11:20;;;;;;;0.00;0.00;;;14.00;79.80;;;;;;5041410;28;20495;-89
2021/01/28 19:13:46;;;;;;;0.00;0.00;;;14.00;79.90;;;;;;5072998;28;20032;-89
2021/01/28 19:16:12;;;;;;;0.00;0.00;;;14.00;80.00;;;;;;5055439;28;20033;-89
2021/01/28 19:18:38;;;;;;;0.17;0.00;;;14.00;80.10;;;;;;5072685;28;20037;-88
2021/01/28 19:21:07;;;;;;;0.00;0.00;;;14.00;80.10;;;;;;5051856;28;20048;-89
2021/01/28 19:23:33;;;;;;;0.00;0.00;;;14.00;80.30;;;;;;5057087;28;20036;-85
2021/01/28 19:25:59;;;;;;;0.45;0.00;;;14.00;80.30;;;;;;5047983;28;20435;-86
2021/01/28 19:28:25;;;;;;;0.68;0.10;;;13.90;80.30;;;;;;5056759;28;20033;-87
2021/01/28 19:30:52;;;;;;;0.00;0.00;;;13.90;80.50;;;;;;5027208;28;20056;-86
2021/01/28 19:33:19;;;;;;;0.05;0.05;;;13.90;80.50;;;;;;5053881;28;20041;-85
2021/01/28 19:35:46;;;;;;;0.55;0.03;;;13.90;80.60;;;;;;5047134;28;20392;-86
2021/01/28 19:38:14;;;;;;;0.00;0.00;;;14.00;80.80;;;;;;5065996;28;20035;-86
2021/01/28 19:40:41;;;;;;;0.00;0.00;;;13.90;80.80;;;;;;5029472;28;20048;-85
2021/01/28 19:43:07;;;;;;;0.10;0.00;;;13.90;80.80;;;;;;5073125;28;20041;-86
2021/01/28 19:45:33;;;;;;;0.00;0.00;;;13.90;80.80;;;;;;5040312;28;20583;-86
2021/01/28 19:47:59;;;;;;;0.00;0.00;;;13.90;81.00;;;;;;5084653;28;20020;-86
2021/01/28 19:50:28;;;;;;;0.08;0.00;;;13.90;81.10;;;;;;5063614;28;20021;-86
2021/01/28 19:52:54;;;;;;;0.05;0.00;;;13.90;81.20;;;;;;5071648;28;20029;-85
2021/01/28 19:55:21;;;;;;;0.00;0.00;;;13.90;81.30;;;;;;5038744;28;20033;-86
2021/01/28 19:57:47;;;;;;;0.10;0.00;;;13.80;81.30;;;;;;5045556;28;20036;-85
2021/01/28 20:00:14;;;;;;;0.03;0.00;;;13.80;81.40;;;;;;5084313;28;20407;-86
2021/01/28 20:02:40;;;;;;;0.00;0.00;;;13.80;81.40;;;;;;5069772;28;20479;-86
2021/01/28 20:05:07;;;;;;;0.03;0.00;;;13.80;81.50;;;;;;5064793;28;20048;-87
2021/01/28 20:07:33;;;;;;;0.10;0.00;;;13.80;81.50;;;;;;5070616;28;20036;-85
2021/01/28 20:09:59;;;;;;;0.13;0.00;;;13.80;81.60;;;;;;5065675;28;20032;-86
2021/01/28 20:12:26;;;;;;;0.00;0.00;;;13.80;81.60;;;;;;5068401;28;20029;-86
2021/01/28 20:14:52;;;;;;;0.17;0.00;;;13.80;81.70;;;;;;5052657;28;20041;-86
2021/01/28 20:17:18;;;;;;;0.10;0.00;;;13.80;81.70;;;;;;5049319;28;20029;-85
2021/01/28 20:19:44;;;;;;;0.52;0.00;;;13.80;81.80;;;;;;5068176;28;20029;-86
2021/01/28 20:22:10;;;;;;;0.68;0.08;;;13.80;81.90;;;;;;5062509;28;20519;-85
2021/01/28 20:24:36;;;;;;;0.00;0.00;;;13.80;81.90;;;;;;5051736;28;20025;-85
2021/01/28 20:27:02;;;;;;;0.00;0.00;;;13.80;81.90;;;;;;5076301;28;20036;-85
2021/01/28 20:29:28;;;;;;;0.00;0.00;;;13.80;82.00;;;;;;5054968;28;20052;-87
2021/01/28 20:31:54;;;;;;;0.00;0.00;;;13.80;82.10;;;;;;5075649;28;20047;-87
2021/01/28 20:34:21;;;;;;;0.00;0.00;;;13.80;82.10;;;;;;5081179;28;20025;-87
2021/01/28 20:36:48;;;;;;;0.00;0.00;;;13.80;82.20;;;;;;5048043;28;20044;-87
2021/01/28 20:39:14;;;;;;;0.80;0.10;;;13.80;82.20;;;;;;5085348;28;20032;-87
2021/01/28 20:41:40;;;;;;;0.00;0.00;;;13.80;82.20;;;;;;5035594;28;20059;-86
2021/01/28 20:44:06;;;;;;;0.05;0.00;;;13.80;82.30;;;;;;5079236;28;20047;-86
2021/01/28 20:46:32;;;;;;;0.00;0.00;;;13.80;82.30;;;;;;5059862;28;20033;-85
2021/01/28 20:48:58;;;;;;;0.00;0.00;;;13.80;82.30;;;;;;5061249;28;20055;-85
2021/01/28 20:51:27;;;;;;;0.32;0.10;;;13.70;82.30;;;;;;5064220;28;20423;-87
2021/01/28 20:53:53;;;;;;;0.00;0.00;;;13.80;82.40;;;;;;5070131;28;20028;-85
2021/01/28 20:56:19;;;;;;;0.00;0.00;;;13.80;82.40;;;;;;5030406;28;20041;-88
2021/01/28 20:58:47;;;;;;;0.10;0.00;;;13.80;82.50;;;;;;5067028;28;20031;-87
2021/01/28 21:01:13;;;;;;;0.35;0.35;;;13.80;82.60;;;;;;5048405;28;20476;-86
2021/01/28 21:03:39;;;;;;;0.10;0.00;;;13.80;82.60;;;;;;5068943;28;20029;-87
2021/01/28 21:06:05;;;;;;;0.15;0.00;;;13.70;83.00;;;;;;5062884;28;20041;-88
2021/01/28 21:08:31;;;;;;;0.00;0.00;;;13.70;82.60;;;;;;5082484;28;20032;-86
2021/01/28 21:10:57;;;;;;;0.00;0.00;;;13.70;82.70;;;;;;5071045;28;20033;-85
2021/01/28 21:13:23;;;;;;;0.00;0.00;;;13.70;82.70;;;;;;5054486;28;20082;-85
2021/01/28 21:15:50;;;;;;;0.03;0.03;;;13.70;82.80;;;;;;5054703;28;20036;-85
2021/01/28 21:18:16;;;;;;;0.00;0.00;;;13.70;82.80;;;;;;5067656;28;20408;-86
2021/01/28 21:20:42;;;;;;;0.00;0.00;;;13.70;82.90;;;;;;5068514;28;20494;-85
2021/01/28 21:23:08;;;;;;;0.00;0.00;;;13.70;83.00;;;;;;5050107;28;20058;-87
2021/01/28 21:25:34;;;;;;;0.03;0.00;;;13.70;83.00;;;;;;5064843;28;20040;-85
2021/01/28 21:28:01;;;;;;;0.60;0.00;;;13.70;83.10;;;;;;5068976;28;20036;-86
2021/01/28 21:30:28;;;;;;;0.00;0.00;;;13.70;83.10;;;;;;5084938;28;20044;-86
2021/01/28 21:32:54;;;;;;;0.00;0.00;;;13.70;83.20;;;;;;5053932;28;20028;-86
2021/01/28 21:35:22;;;;;;;0.10;0.00;;;13.70;83.20;;;;;;5054486;28;20040;-86
2021/01/28 21:37:49;;;;;;;0.00;0.00;;;13.70;83.30;;;;;;5068946;28;20394;-85
2021/01/28 21:40:16;;;;;;;0.20;0.00;;;13.70;83.30;;;;;;5052741;28;20044;-85
2021/01/28 21:42:42;;;;;;;0.00;0.00;;;13.60;83.30;;;;;;5048468;28;20044;-84
2021/01/28 21:45:09;;;;;;;0.30;0.10;;;13.60;83.30;;;;;;5034862;28;20078;-84
2021/01/28 21:47:35;;;;;;;0.35;0.13;;;13.60;83.40;;;;;;5055319;28;20049;-84
2021/01/28 21:50:02;;;;;;;0.00;0.00;;;13.60;83.40;;;;;;5038221;28;20043;-86
2021/01/28 21:52:28;;;;;;;0.00;0.00;;;13.70;83.50;;;;;;5075254;28;20041;-87
2021/01/28 21:54:54;;;;;;;0.00;0.00;;;13.70;83.50;;;;;;5061454;28;20460;-86
2021/01/28 21:57:20;;;;;;;0.00;0.00;;;13.70;83.50;;;;;;5047857;28;20044;-86
2021/01/28 21:59:46;;;;;;;0.00;0.00;;;13.70;83.60;;;;;;5054483;28;20075;-85
2021/01/28 22:02:13;;;;;;;0.10;0.10;;;13.70;83.60;;;;;;5070416;28;20045;-85
2021/01/28 22:04:41;;;;;;;0.10;0.00;;;13.70;83.60;;;;;;5069904;28;20044;-86
2021/01/28 22:07:07;;;;;;;6.45;0.10;;;13.70;83.80;;;;;;5052944;28;20044;-87
2021/01/28 22:09:33;;;;;;;0.00;0.00;;;13.70;83.70;;;;;;5072112;28;20036;-87
2021/01/28 22:12:00;;;;;;;0.00;0.00;;;13.70;83.70;;;;;;5066026;28;20032;-86
2021/01/28 22:14:26;;;;;;;0.25;0.00;;;13.70;83.80;;;;;;5054889;28;20468;-86
2021/01/28 22:16:52;;;;;;;0.00;0.00;;;13.70;83.90;;;;;;5075641;28;20045;-85
2021/01/28 22:19:18;;;;;;;0.00;0.00;;;13.70;83.90;;;;;;5074797;28;20043;-87
2021/01/28 22:21:44;;;;;;;0.20;0.00;;;13.70;84.00;;;;;;5065362;28;20051;-86
2021/01/28 22:24:11;;;;;;;0.55;0.10;;;13.70;84.00;;;;;;5066619;28;20029;-86
2021/01/28 22:26:38;;;;;;;4.40;0.20;;;13.70;84.00;;;;;;5061230;28;20468;-86
2021/01/28 22:29:04;;;;;;;0.15;0.03;;;13.70;84.00;;;;;;5074420;28;20045;-86
2021/01/28 22:31:31;;;;;;;0.05;0.00;;;13.70;84.10;;;;;;5074533;28;20037;-87
2021/01/28 22:33:57;;;;;;;0.00;0.00;;;13.70;84.20;;;;;;5061908;28;20040;-86
2021/01/28 22:36:23;;;;;;;0.00;0.00;;;13.70;84.20;;;;;;5058431;28;21284;-86
2021/01/28 22:38:50;;;;;;;0.70;0.00;;;13.70;84.20;;;;;;5067113;28;20036;-86
2021/01/28 22:41:16;;;;;;;0.00;0.00;;;13.70;84.20;;;;;;5063399;28;20396;-86
2021/01/28 22:43:43;;;;;;;1.90;0.25;;;13.70;84.20;;;;;;5080842;28;20377;-85
2021/01/28 22:46:09;;;;;;;0.10;0.05;;;13.70;84.20;;;;;;5077841;28;20037;-86
2021/01/28 22:48:36;;;;;;;0.00;0.00;;;13.70;84.30;;;;;;5080422;28;20033;-87
2021/01/28 22:51:03;;;;;;;0.22;0.10;;;13.70;84.30;;;;;;5046401;28;20045;-87
2021/01/28 22:53:29;;;;;;;0.05;0.05;;;13.70;84.40;;;;;;5068107;28;20626;-87
2021/01/28 22:55:55;;;;;;;1.25;0.38;;;13.70;84.40;;;;;;5059668;28;20044;-87
2021/01/28 22:58:21;;;;;;;0.75;0.30;;;13.70;84.40;;;;;;5073987;28;20047;-85
2021/01/28 23:00:52;;;;;;;7.22;0.10;;;13.70;84.40;;;;;;5068715;28;20037;-85
2021/01/28 23:03:25;;;;;;;0.55;0.13;;;13.70;84.40;;;;;;5042858;28;20055;-86
2021/01/28 23:05:51;;;;;;;1.17;0.10;;;13.70;84.40;;;;;;5073635;28;20115;-85
2021/01/28 23:08:17;;;;;;;0.32;0.17;;;13.70;84.40;;;;;;5077676;28;20044;-87
2021/01/28 23:10:43;;;;;;;0.20;0.10;;;13.70;84.50;;;;;;5055988;28;20048;-86
2021/01/28 23:13:12;;;;;;;0.10;0.00;;;13.70;84.50;;;;;;5074227;28;20602;-86
2021/01/28 23:15:40;;;;;;;0.38;0.00;;;13.70;84.50;;;;;;5059761;28;20507;-84
2021/01/28 23:18:07;;;;;;;0.10;0.00;;;13.70;84.50;;;;;;5068121;28;20025;-87
2021/01/28 23:20:33;;;;;;;0.45;0.13;;;13.70;84.60;;;;;;5067921;28;20024;-85
2021/01/28 23:23:01;;;;;;;0.20;0.00;;;13.70;84.60;;;;;;5069637;28;20037;-84
2021/01/28 23:25:27;;;;;;;2.70;0.03;;;13.70;84.70;;;;;;5058780;28;20041;-86
2021/01/28 23:27:53;;;;;;;0.55;0.20;;;13.70;84.70;;;;;;5057313;28;20463;-86
2021/01/28 23:30:20;;;;;;;0.45;0.10;;;13.70;84.60;;;;;;5053938;28;20041;-86
2021/01/28 23:32:46;;;;;;;3.60;0.10;;;13.70;84.60;;;;;;5066873;28;20028;-86
2021/01/28 23:35:19;;;;;;;4.13;0.20;;;13.70;84.60;;;;;;5049001;28;20122;-86
2021/01/28 23:37:45;;;;;;;0.20;0.00;;;13.70;84.70;;;;;;5050024;28;20526;-87
2021/01/28 23:40:11;;;;;;;1.00;0.13;;;13.70;84.70;;;;;;5063463;28;20036;-86
2021/01/28 23:42:38;;;;;;;0.10;0.10;;;13.70;84.70;;;;;;5037989;28;20075;-84
2021/01/28 23:45:08;;;;;;;0.10;0.00;;;13.70;84.70;;;;;;5045960;28;20388;-85
2021/01/28 23:47:34;;;;;;;0.25;0.20;;;13.70;84.70;;;;;;5069059;28;20028;-83
2021/01/28 23:50:00;;;;;;;0.10;0.00;;;13.70;84.70;;;;;;5077715;28;20032;-87
2021/01/28 23:52:26;;;;;;;0.70;0.20;;;13.70;84.80;;;;;;5041362;28;20477;-87
2021/01/28 23:54:52;;;;;;;1.05;0.10;;;13.70;84.70;;;;;;5059314;28;20025;-87
2021/01/28 23:57:19;;;;;;;0.05;0.00;;;13.70;84.70;;;;;;5062125;28;20661;-86
2021/01/28 23:59:45;;;;;;;0.50;0.10;;;13.70;84.70;;;;;;5058177;28;20033;-86
